This is the latest recevied weather packets stored in our database for station/object LRCT. If no packets are shown the sender has not sent any weather packets the latest 10 day(s).
| Time | Temp. | Humidity | Pressure | Rain* | Wind** | Luminosity | Snow |
|---|---|---|---|---|---|---|---|
| 1788075267 | 22.22° C | 57% | 1018 hPa | - | - | - | - |
| 1788074336 | 22.22° C | 57% | 1018 hPa | - | - | - | - |
| 1788073437 | 22.22° C | 57% | 1018 hPa | - | - | - | - |
| 1788072536 | 20° C | 69% | 1018 hPa | - | - | - | - |
| 1788071637 | 20° C | 69% | 1018 hPa | - | - | - | - |
| 1788070736 | 20° C | 69% | 1018 hPa | - | - | - | - |
| 1788069836 | 20° C | 69% | 1018 hPa | - | - | - | - |
| 1788068937 | 17.22° C | 94% | 1018 hPa | - | - | - | - |
| 1788068036 | 17.22° C | 94% | 1018 hPa | - | - | - | - |
| 1788067136 | 17.22° C | 94% | 1018 hPa | - | - | - | - |
| 1788066236 | 17.22° C | 94% | 1018 hPa | - | - | - | - |
| 1788065336 | 13.89° C | 100% | 1018 hPa | - | - | - | - |
| 1788064437 | 13.89° C | 100% | 1018 hPa | - | - | - | - |
| 1788063568 | 13.89° C | 100% | 1018 hPa | - | - | - | - |
| 1788062637 | 13.89° C | 100% | 1018 hPa | - | - | - | - |
| 1788061734 | 15° C | 88% | 1017 hPa | - | - | - | - |
| 1788060836 | 15° C | 88% | 1017 hPa | - | - | - | - |
| 1788040137 | 18.89° C | 83% | 1016 hPa | - | - | - | - |
| 1788039237 | 21.11° C | 69% | 1016 hPa | - | - | - | - |
| 1788038338 | 21.11° C | 69% | 1016 hPa | - | - | - | - |
| 1788036534 | 22.22° C | 61% | 1016 hPa | - | - | - | - |
| 1788035637 | 22.22° C | 61% | 1016 hPa | - | - | - | - |
| 1788034737 | 22.22° C | 61% | 1016 hPa | - | - | - | - |
| 1788033838 | 22.22° C | 61% | 1016 hPa | - | - | - | - |
| 1788032938 | 22.78° C | 53% | 1016 hPa | - | - | - | - |
* Rain since midnight (hover to see other rain measurements)
** Current wind speed in m/s (hover to see current wind gust speed)